Time;durP1;ratioP1;P1;durP2;ratioP2;P2;SDS_P1;SDS_P2;PMS_P1;PMS_P2;Temp;Humidity;BMP_temperature;BMP_pressure;BME280_temperature;BME280_humidity;BME280_pressure;Samples;Min_cycle;Max_cycle;Signal;HPM_P1;HPM_P2
2022/07/18 00:01:41;;;;;;;2.42;1.75;;;;;;;;;;4361021;32;20682;-82
2022/07/18 00:04:10;;;;;;;5.03;1.60;;;;;;;;;;4361488;32;20234;-79
2022/07/18 00:06:37;;;;;;;1.85;1.42;;;;;;;;;;4361874;32;20623;-80
2022/07/18 00:09:03;;;;;;;2.67;1.40;;;;;;;;;;4348142;32;20545;-80
2022/07/18 00:11:29;;;;;;;3.80;1.58;;;;;;;;;;4361597;32;20658;-80
2022/07/18 00:13:55;;;;;;;3.62;1.40;;;;;;;;;;4361450;32;20540;-80
2022/07/18 00:16:22;;;;;;;3.35;1.65;;;;;;;;;;4361413;32;20244;-80
2022/07/18 00:18:49;;;;;;;3.97;2.00;;;;;;;;;;4361154;32;20467;-80
2022/07/18 00:21:16;;;;;;;2.08;1.60;;;;;;;;;;4347956;32;20606;-81
2022/07/18 00:23:42;;;;;;;3.42;1.62;;;;;;;;;;4361943;32;20528;-82
2022/07/18 00:26:09;;;;;;;1.90;1.60;;;;;;;;;;4361349;32;20742;-81
2022/07/18 00:28:35;;;;;;;2.55;1.90;;;;;;;;;;4360056;32;20530;-80
2022/07/18 00:31:01;;;;;;;2.87;1.55;;;;;;;;;;4361113;32;20640;-82
2022/07/18 00:33:27;;;;;;;2.25;1.55;;;;;;;;;;4361490;32;20277;-81
2022/07/18 00:35:52;;;;;;;2.15;1.70;;;;;;;;;;4360356;32;20226;-80
2022/07/18 00:38:18;;;;;;;2.55;1.58;;;;;;;;;;4347861;32;20203;-80
2022/07/18 00:40:44;;;;;;;3.03;1.70;;;;;;;;;;4360958;32;20227;-81
2022/07/18 00:43:13;;;;;;;2.67;1.83;;;;;;;;;;4361311;32;20210;-81
2022/07/18 00:45:43;;;;;;;1.52;1.33;;;;;;;;;;4360929;32;20623;-81
2022/07/18 00:48:09;;;;;;;1.58;1.45;;;;;;;;;;4361006;32;20565;-81
2022/07/18 00:50:35;;;;;;;2.20;1.70;;;;;;;;;;4361022;32;20249;-80
2022/07/18 00:53:01;;;;;;;3.75;3.45;;;;;;;;;;4361245;32;20599;-81
2022/07/18 00:55:26;;;;;;;5.28;3.30;;;;;;;;;;4360731;32;20264;-80
2022/07/18 00:57:53;;;;;;;3.80;2.50;;;;;;;;;;4360959;32;20211;-81
2022/07/18 01:03:04;;;;;;;2.40;1.80;;;;;;;;;;4360684;32;20681;-81
2022/07/18 01:05:30;;;;;;;3.58;1.70;;;;;;;;;;4360580;32;20225;-82
2022/07/18 01:07:56;;;;;;;5.32;1.60;;;;;;;;;;4360710;32;20234;-82
2022/07/18 01:10:21;;;;;;;3.15;1.60;;;;;;;;;;4346384;32;20564;-81
2022/07/18 01:12:47;;;;;;;2.75;1.48;;;;;;;;;;4360833;32;20367;-81
2022/07/18 01:15:13;;;;;;;2.95;1.65;;;;;;;;;;4360515;32;20276;-81
2022/07/18 01:17:39;;;;;;;2.25;1.58;;;;;;;;;;4360669;32;20373;-80
2022/07/18 01:20:06;;;;;;;1.55;1.37;;;;;;;;;;4360414;32;20249;-80
2022/07/18 01:22:32;;;;;;;3.67;1.70;;;;;;;;;;4346119;32;20634;-80
2022/07/18 01:24:59;;;;;;;2.20;1.50;;;;;;;;;;4359317;32;20673;-81
2022/07/18 01:27:25;;;;;;;2.55;1.58;;;;;;;;;;4360475;32;20565;-80
2022/07/18 01:29:53;;;;;;;2.90;1.77;;;;;;;;;;4360423;32;20728;-80
2022/07/18 01:32:20;;;;;;;3.58;1.90;;;;;;;;;;4360493;32;20630;-80
2022/07/18 01:34:47;;;;;;;3.47;1.65;;;;;;;;;;4360338;32;20618;-81
2022/07/18 01:37:15;;;;;;;1.70;1.58;;;;;;;;;;4360473;32;20529;-80
2022/07/18 01:39:43;;;;;;;2.50;1.70;;;;;;;;;;4360241;32;20636;-80
2022/07/18 01:42:10;;;;;;;1.77;1.52;;;;;;;;;;4360375;32;20677;-80
2022/07/18 01:44:37;;;;;;;2.45;1.50;;;;;;;;;;4359951;32;20671;-79
2022/07/18 01:47:05;;;;;;;1.60;1.23;;;;;;;;;;4360377;32;20536;-81
2022/07/18 01:49:31;;;;;;;8.90;1.77;;;;;;;;;;4360257;32;20659;-81
2022/07/18 01:51:58;;;;;;;2.42;1.80;;;;;;;;;;4346480;32;20652;-80
2022/07/18 01:54:26;;;;;;;2.83;1.92;;;;;;;;;;4347062;32;20582;-79
2022/07/18 01:56:52;;;;;;;3.12;1.55;;;;;;;;;;4359992;32;20620;-80
2022/07/18 01:59:19;;;;;;;3.10;1.60;;;;;;;;;;4360076;32;20706;-81
2022/07/18 02:01:45;;;;;;;3.37;1.77;;;;;;;;;;4358653;32;20588;-80
2022/07/18 02:04:11;;;;;;;2.35;1.50;;;;;;;;;;4346474;32;20706;-80
2022/07/18 02:06:37;;;;;;;3.50;1.42;;;;;;;;;;4360055;32;20699;-79
2022/07/18 02:09:04;;;;;;;4.65;1.62;;;;;;;;;;4359685;32;20221;-80
2022/07/18 02:11:30;;;;;;;3.12;1.90;;;;;;;;;;4359678;32;20646;-80
2022/07/18 02:13:56;;;;;;;2.30;1.48;;;;;;;;;;4346311;32;20337;-79
2022/07/18 02:16:23;;;;;;;3.08;1.80;;;;;;;;;;4358708;32;20226;-80
2022/07/18 02:18:48;;;;;;;2.37;1.83;;;;;;;;;;4359865;32;20615;-80
2022/07/18 02:21:14;;;;;;;3.75;2.03;;;;;;;;;;4359450;32;20221;-80
2022/07/18 02:23:41;;;;;;;1.62;1.45;;;;;;;;;;4359547;32;20198;-80
2022/07/18 02:26:07;;;;;;;2.55;1.37;;;;;;;;;;4345901;32;20567;-80
2022/07/18 02:28:34;;;;;;;9.52;2.10;;;;;;;;;;4359637;32;20540;-80
2022/07/18 02:30:59;;;;;;;5.28;2.10;;;;;;;;;;4359410;32;20600;-80
2022/07/18 02:33:25;;;;;;;2.00;1.50;;;;;;;;;;4359750;32;20261;-80
2022/07/18 02:35:51;;;;;;;2.72;1.92;;;;;;;;;;4359271;32;20221;-80
2022/07/18 02:38:17;;;;;;;3.17;2.08;;;;;;;;;;4359923;32;20678;-80
2022/07/18 02:40:43;;;;;;;3.97;1.58;;;;;;;;;;4359587;32;20261;-82
2022/07/18 02:43:09;;;;;;;3.40;2.22;;;;;;;;;;4359233;32;20268;-80
2022/07/18 02:45:35;;;;;;;4.60;1.85;;;;;;;;;;4359709;32;20309;-80
2022/07/18 02:48:01;;;;;;;3.55;1.98;;;;;;;;;;4357826;32;20276;-81
2022/07/18 02:50:27;;;;;;;2.90;1.90;;;;;;;;;;4359187;32;20202;-80
2022/07/18 02:52:52;;;;;;;5.03;2.00;;;;;;;;;;4359152;32;20560;-80
2022/07/18 02:55:20;;;;;;;1.95;1.52;;;;;;;;;;4359381;32;20190;-81
2022/07/18 02:57:46;;;;;;;3.08;1.95;;;;;;;;;;4345516;32;20698;-81
2022/07/18 03:00:15;;;;;;;4.35;1.80;;;;;;;;;;4358012;32;20682;-80
2022/07/18 03:02:43;;;;;;;3.50;1.90;;;;;;;;;;4344190;32;20655;-82
2022/07/18 03:05:09;;;;;;;3.17;1.67;;;;;;;;;;4359585;32;20588;-80
2022/07/18 03:07:35;;;;;;;3.75;1.77;;;;;;;;;;4345642;32;20256;-80
2022/07/18 03:10:00;;;;;;;2.72;1.87;;;;;;;;;;4359232;32;20221;-81
2022/07/18 03:12:26;;;;;;;11.20;2.65;;;;;;;;;;4358994;32;20222;-82
2022/07/18 03:14:52;;;;;;;2.22;1.92;;;;;;;;;;4359256;33;20203;-81
2022/07/18 03:17:19;;;;;;;8.52;2.28;;;;;;;;;;4359226;33;20325;-81
2022/07/18 03:19:44;;;;;;;3.10;1.73;;;;;;;;;;4359122;33;20577;-82
2022/07/18 03:22:10;;;;;;;3.72;1.83;;;;;;;;;;4358878;33;20222;-81
2022/07/18 03:24:37;;;;;;;2.00;1.77;;;;;;;;;;4359117;33;20202;-81
2022/07/18 03:27:04;;;;;;;3.12;1.80;;;;;;;;;;4358792;33;20599;-83
2022/07/18 03:29:30;;;;;;;2.62;1.85;;;;;;;;;;4345948;33;20492;-80
2022/07/18 03:31:55;;;;;;;3.03;1.73;;;;;;;;;;4359042;32;20288;-82
2022/07/18 03:34:21;;;;;;;3.35;1.70;;;;;;;;;;4362238;32;20229;-80
2022/07/18 03:36:47;;;;;;;2.65;1.85;;;;;;;;;;4362044;32;20308;-81
2022/07/18 03:39:13;;;;;;;2.47;1.83;;;;;;;;;;4361822;32;20228;-83
2022/07/18 03:41:39;;;;;;;6.60;2.35;;;;;;;;;;4361715;32;20222;-80
2022/07/18 03:44:05;;;;;;;5.50;2.35;;;;;;;;;;4362062;32;20655;-82
2022/07/18 03:46:32;;;;;;;3.33;2.65;;;;;;;;;;4361626;32;20552;-80
2022/07/18 03:48:58;;;;;;;7.10;2.25;;;;;;;;;;4347880;32;20639;-81
2022/07/18 03:51:25;;;;;;;7.80;2.28;;;;;;;;;;4347984;32;20690;-81
2022/07/18 03:53:50;;;;;;;5.65;2.62;;;;;;;;;;4361817;32;20604;-81
2022/07/18 03:56:17;;;;;;;4.78;2.72;;;;;;;;;;4361385;32;20244;-81
2022/07/18 03:58:44;;;;;;;10.88;3.62;;;;;;;;;;4361802;32;20592;-81
2022/07/18 04:01:10;;;;;;;10.65;4.20;;;;;;;;;;4361454;32;20681;-82
2022/07/18 04:03:36;;;;;;;7.45;3.90;;;;;;;;;;4361307;32;20230;-80
2022/07/18 04:06:02;;;;;;;6.75;3.90;;;;;;;;;;4361291;32;20190;-81
2022/07/18 04:08:28;;;;;;;6.78;3.08;;;;;;;;;;4361505;32;20682;-80
2022/07/18 04:10:53;;;;;;;5.68;3.42;;;;;;;;;;4361193;32;20252;-81
2022/07/18 04:13:19;;;;;;;9.02;3.55;;;;;;;;;;4361536;32;20199;-80
2022/07/18 04:15:45;;;;;;;7.87;3.87;;;;;;;;;;4361452;32;20198;-80
2022/07/18 04:18:11;;;;;;;6.32;3.80;;;;;;;;;;4361392;32;20198;-81
2022/07/18 04:20:38;;;;;;;6.03;3.62;;;;;;;;;;4361208;32;20198;-81
2022/07/18 04:23:07;;;;;;;17.05;3.60;;;;;;;;;;4360691;32;20579;-81
2022/07/18 04:25:41;;;;;;;6.53;3.90;;;;;;;;;;4361169;32;20594;-80
2022/07/18 04:28:08;;;;;;;12.90;4.40;;;;;;;;;;4360908;32;20575;-81
2022/07/18 04:30:35;;;;;;;13.20;3.95;;;;;;;;;;4361019;32;20599;-82
2022/07/18 04:33:05;;;;;;;10.63;4.40;;;;;;;;;;4360831;32;20694;-80
2022/07/18 04:35:35;;;;;;;10.60;4.57;;;;;;;;;;4360945;32;20630;-80
2022/07/18 04:38:02;;;;;;;11.55;3.90;;;;;;;;;;4359392;32;20665;-79
2022/07/18 04:40:28;;;;;;;8.20;4.80;;;;;;;;;;4360987;32;20670;-80
2022/07/18 04:42:55;;;;;;;18.30;5.30;;;;;;;;;;4360514;32;20686;-81
2022/07/18 04:45:23;;;;;;;9.00;5.05;;;;;;;;;;4361040;32;20199;-81
2022/07/18 04:47:54;;;;;;;12.00;5.85;;;;;;;;;;4360622;32;20712;-81
2022/07/18 04:50:20;;;;;;;8.35;4.32;;;;;;;;;;4360870;32;20611;-80
2022/07/18 04:52:47;;;;;;;8.77;5.55;;;;;;;;;;4360590;32;20218;-79
2022/07/18 04:55:16;;;;;;;7.40;3.90;;;;;;;;;;4361039;32;20614;-81
2022/07/18 04:57:41;;;;;;;6.70;4.37;;;;;;;;;;4359659;32;20589;-80
2022/07/18 05:00:19;;;;;;;7.30;3.60;;;;;;;;;;4361015;32;20280;-82
2022/07/18 05:02:48;;;;;;;9.10;3.78;;;;;;;;;;4360647;32;20560;-80
2022/07/18 05:05:14;;;;;;;3.50;2.90;;;;;;;;;;4361034;32;20533;-81
2022/07/18 05:07:42;;;;;;;5.37;3.65;;;;;;;;;;4360589;32;20551;-83
2022/07/18 05:10:09;;;;;;;8.65;2.97;;;;;;;;;;4360821;32;20710;-79
2022/07/18 05:12:36;;;;;;;2.70;2.15;;;;;;;;;;4347038;32;20688;-80
2022/07/18 05:15:05;;;;;;;9.23;2.45;;;;;;;;;;4360681;32;20528;-79
2022/07/18 05:17:31;;;;;;;4.93;2.37;;;;;;;;;;4360470;32;20546;-82
2022/07/18 05:19:56;;;;;;;9.77;2.30;;;;;;;;;;4360679;32;20229;-81
2022/07/18 05:22:22;;;;;;;3.70;1.87;;;;;;;;;;4360506;32;20246;-81
2022/07/18 05:24:49;;;;;;;9.45;1.85;;;;;;;;;;4360480;32;20691;-82
2022/07/18 05:27:15;;;;;;;7.37;2.33;;;;;;;;;;4359956;32;20642;-81
2022/07/18 05:29:41;;;;;;;10.10;1.87;;;;;;;;;;4360394;32;20198;-83
2022/07/18 05:32:08;;;;;;;6.65;1.60;;;;;;;;;;4360122;32;20227;-82
2022/07/18 05:34:34;;;;;;;2.75;1.80;;;;;;;;;;4360356;32;20569;-82
2022/07/18 05:37:00;;;;;;;4.37;1.92;;;;;;;;;;4360106;32;20591;-82
2022/07/18 05:39:26;;;;;;;3.37;1.90;;;;;;;;;;4360701;32;20202;-80
2022/07/18 05:41:52;;;;;;;3.28;2.10;;;;;;;;;;4359974;32;20344;-81
2022/07/18 05:44:19;;;;;;;7.47;2.58;;;;;;;;;;4359865;32;20667;-80
2022/07/18 05:46:46;;;;;;;8.55;4.30;;;;;;;;;;4359685;32;20595;-82
2022/07/18 05:49:13;;;;;;;13.65;4.28;;;;;;;;;;4360292;32;20588;-81
2022/07/18 05:51:40;;;;;;;9.40;4.90;;;;;;;;;;4360191;32;20701;-79
2022/07/18 05:54:09;;;;;;;13.32;5.00;;;;;;;;;;4359821;32;20597;-79
2022/07/18 05:56:35;;;;;;;6.95;3.70;;;;;;;;;;4346697;32;20752;-81
2022/07/18 05:59:01;;;;;;;7.82;2.80;;;;;;;;;;4360942;32;20202;-80
2022/07/18 06:01:27;;;;;;;8.88;2.55;;;;;;;;;;4360525;32;20636;-82
2022/07/18 06:04:05;;;;;;;6.05;2.05;;;;;;;;;;4359894;32;20373;-79
2022/07/18 06:06:43;;;;;;;3.47;2.25;;;;;;;;;;4362840;32;20588;-84
2022/07/18 06:09:37;;;;;;;3.65;1.30;;;;;;;;;;4362893;32;20545;-81
2022/07/18 06:12:20;;;;;;;4.35;1.77;;;;;;;;;;4363456;32;20587;-84
2022/07/18 06:14:48;;;;;;;5.05;1.50;;;;;;;;;;4363217;32;20539;-78
2022/07/18 06:17:14;;;;;;;2.55;1.20;;;;;;;;;;4346549;32;20712;-78
2022/07/18 06:19:41;;;;;;;2.20;1.62;;;;;;;;;;4346815;32;20555;-79
2022/07/18 06:22:07;;;;;;;2.60;1.60;;;;;;;;;;4359692;32;20667;-80
2022/07/18 06:24:33;;;;;;;4.65;1.42;;;;;;;;;;4360048;32;20584;-80
2022/07/18 06:26:59;;;;;;;1.30;0.90;;;;;;;;;;4360200;32;20230;-79
2022/07/18 06:29:25;;;;;;;1.77;1.40;;;;;;;;;;4347324;32;20191;-79
2022/07/18 06:31:51;;;;;;;5.43;1.10;;;;;;;;;;4359249;32;20219;-80
2022/07/18 06:34:17;;;;;;;1.35;0.90;;;;;;;;;;4359517;32;20309;-81
2022/07/18 06:36:42;;;;;;;0.52;0.52;;;;;;;;;;4359554;32;20245;-81
2022/07/18 06:39:11;;;;;;;2.05;1.15;;;;;;;;;;4359213;32;20220;-80
2022/07/18 06:41:40;;;;;;;4.10;1.15;;;;;;;;;;4345874;32;20604;-81
2022/07/18 06:44:06;;;;;;;1.55;0.80;;;;;;;;;;4359284;32;20528;-81
2022/07/18 06:46:32;;;;;;;1.27;1.00;;;;;;;;;;4359273;32;20650;-81
2022/07/18 06:48:58;;;;;;;1.25;1.02;;;;;;;;;;4359146;32;20612;-80
2022/07/18 06:51:24;;;;;;;5.12;1.10;;;;;;;;;;4359200;32;20214;-81
2022/07/18 06:53:51;;;;;;;3.03;1.85;;;;;;;;;;4359229;32;20615;-80
2022/07/18 06:56:17;;;;;;;1.87;1.45;;;;;;;;;;4359114;32;20640;-81
2022/07/18 06:58:48;;;;;;;2.70;1.70;;;;;;;;;;4345331;32;20691;-79
2022/07/18 07:01:15;;;;;;;4.20;1.27;;;;;;;;;;4358795;32;20656;-80
2022/07/18 07:03:40;;;;;;;1.50;1.10;;;;;;;;;;4358940;32;20600;-80
2022/07/18 07:06:06;;;;;;;1.10;0.88;;;;;;;;;;4359086;32;20226;-81
2022/07/18 07:08:32;;;;;;;2.22;1.48;;;;;;;;;;4358849;32;20202;-80
2022/07/18 07:10:57;;;;;;;2.20;1.20;;;;;;;;;;4358783;32;20281;-80
2022/07/18 07:13:26;;;;;;;1.40;1.02;;;;;;;;;;4359880;32;20210;-78
2022/07/18 07:16:02;;;;;;;6.25;1.33;;;;;;;;;;4360950;33;20596;-79
2022/07/18 07:18:29;;;;;;;1.00;0.90;;;;;;;;;;4360096;33;20708;-77
2022/07/18 07:20:58;;;;;;;1.50;1.00;;;;;;;;;;4361518;33;20552;-78
2022/07/18 07:23:25;;;;;;;1.80;0.73;;;;;;;;;;4361777;33;20559;-78
2022/07/18 07:25:51;;;;;;;8.30;1.50;;;;;;;;;;4361000;33;20544;-81
2022/07/18 07:28:18;;;;;;;2.60;1.23;;;;;;;;;;4359373;33;20213;-82
2022/07/18 07:30:44;;;;;;;1.58;0.80;;;;;;;;;;4359529;33;20571;-79
2022/07/18 07:33:10;;;;;;;2.17;1.15;;;;;;;;;;4359098;33;20647;-80
2022/07/18 07:35:36;;;;;;;1.62;0.90;;;;;;;;;;4360929;33;20232;-83
2022/07/18 07:38:02;;;;;;;7.70;0.90;;;;;;;;;;4360083;33;20301;-84
2022/07/18 07:40:29;;;;;;;2.45;0.95;;;;;;;;;;4359747;33;20282;-84
2022/07/18 07:43:12;;;;;;;3.90;1.02;;;;;;;;;;4359090;33;20647;-84
2022/07/18 07:45:38;;;;;;;7.07;0.88;;;;;;;;;;4359269;33;20743;-83
2022/07/18 07:48:04;;;;;;;3.33;1.08;;;;;;;;;;4358832;33;20661;-84
2022/07/18 07:50:31;;;;;;;2.28;0.77;;;;;;;;;;4359477;33;20253;-83
2022/07/18 07:52:58;;;;;;;1.48;0.90;;;;;;;;;;4359107;33;20635;-80
2022/07/18 07:55:25;;;;;;;1.12;0.77;;;;;;;;;;4358417;33;20565;-80
2022/07/18 07:57:51;;;;;;;1.70;0.85;;;;;;;;;;4358396;33;20591;-79
2022/07/18 08:00:17;;;;;;;1.12;0.77;;;;;;;;;;4358136;33;20570;-81
2022/07/18 08:03:01;;;;;;;1.65;1.05;;;;;;;;;;4358601;33;20689;-84
2022/07/18 08:05:29;;;;;;;5.00;1.02;;;;;;;;;;4360253;33;20631;-82
2022/07/18 08:07:56;;;;;;;2.00;1.35;;;;;;;;;;4345450;33;20594;-84
2022/07/18 08:10:22;;;;;;;1.73;0.98;;;;;;;;;;4359010;33;20608;-84
2022/07/18 08:12:48;;;;;;;2.33;1.10;;;;;;;;;;4359304;33;20392;-83
2022/07/18 08:15:14;;;;;;;5.07;1.10;;;;;;;;;;4359970;33;20198;-85
2022/07/18 08:17:40;;;;;;;4.47;0.90;;;;;;;;;;4358675;32;20229;-80
2022/07/18 08:20:07;;;;;;;2.05;1.00;;;;;;;;;;4348246;32;20506;-79
2022/07/18 08:22:33;;;;;;;19.90;1.27;;;;;;;;;;4348004;32;20737;-80
2022/07/18 08:24:58;;;;;;;1.02;0.68;;;;;;;;;;4361211;32;20269;-81
2022/07/18 08:27:24;;;;;;;1.67;0.93;;;;;;;;;;4361301;32;20222;-80
2022/07/18 08:29:50;;;;;;;4.68;1.30;;;;;;;;;;4361127;32;20191;-80
2022/07/18 08:32:15;;;;;;;1.40;0.80;;;;;;;;;;4361141;32;20249;-79
2022/07/18 08:34:41;;;;;;;1.58;1.00;;;;;;;;;;4361279;32;20228;-80
2022/07/18 08:37:07;;;;;;;4.30;0.93;;;;;;;;;;4361128;32;20222;-80
2022/07/18 08:39:32;;;;;;;4.32;1.00;;;;;;;;;;4361035;32;20241;-79
2022/07/18 08:42:01;;;;;;;1.90;1.08;;;;;;;;;;4361006;32;20284;-85
2022/07/18 08:44:28;;;;;;;1.70;1.10;;;;;;;;;;4347956;32;20617;-85
2022/07/18 08:46:57;;;;;;;1.52;0.98;;;;;;;;;;4361490;32;20662;-85
2022/07/18 08:49:24;;;;;;;1.48;0.93;;;;;;;;;;4361065;32;20639;-84
2022/07/18 08:51:51;;;;;;;2.25;1.02;;;;;;;;;;4361471;32;20552;-83
2022/07/18 08:54:16;;;;;;;4.10;1.00;;;;;;;;;;4361492;32;20554;-84
2022/07/18 08:56:42;;;;;;;4.20;0.88;;;;;;;;;;4361424;32;20222;-83
2022/07/18 08:59:08;;;;;;;1.50;0.90;;;;;;;;;;4347685;32;20298;-84
2022/07/18 09:01:34;;;;;;;2.65;0.98;;;;;;;;;;4335309;32;20282;-82
2022/07/18 09:04:15;;;;;;;3.12;1.08;;;;;;;;;;4360996;32;20210;-81
2022/07/18 09:06:49;;;;;;;1.02;0.80;;;;;;;;;;4361057;32;20647;-82
2022/07/18 09:09:17;;;;;;;1.83;0.80;;;;;;;;;;4347395;32;20537;-80
2022/07/18 09:12:09;;;;;;;2.35;0.98;;;;;;;;;;4347025;32;20672;-79
2022/07/18 09:14:41;;;;;;;1.90;0.95;;;;;;;;;;4358303;32;20582;-81
2022/07/18 09:17:13;;;;;;;2.42;0.80;;;;;;;;;;4360605;32;20619;-83
2022/07/18 09:19:59;;;;;;;4.65;0.85;;;;;;;;;;4359506;32;20581;-85
2022/07/18 09:22:30;;;;;;;4.10;0.90;;;;;;;;;;4360346;32;20655;-82
2022/07/18 09:25:04;;;;;;;2.62;1.02;;;;;;;;;;4360521;32;20539;-81
2022/07/18 09:27:32;;;;;;;0.80;0.70;;;;;;;;;;4359995;32;20537;-82
2022/07/18 09:30:25;;;;;;;0.80;0.65;;;;;;;;;;4359262;32;20617;-83
2022/07/18 09:33:03;;;;;;;1.40;0.70;;;;;;;;;;4360053;32;20606;-84
2022/07/18 09:35:33;;;;;;;1.15;0.80;;;;;;;;;;4347259;32;20556;-84
2022/07/18 09:38:08;;;;;;;2.50;0.85;;;;;;;;;;4360227;32;20719;-84
2022/07/18 09:40:42;;;;;;;2.72;0.80;;;;;;;;;;4360822;32;20514;-84
2022/07/18 09:43:11;;;;;;;4.25;1.20;;;;;;;;;;4360046;32;20416;-84
2022/07/18 09:45:42;;;;;;;1.25;0.90;;;;;;;;;;4360208;32;20634;-83
2022/07/18 09:48:10;;;;;;;9.20;1.05;;;;;;;;;;4359925;32;20734;-85
2022/07/18 09:50:43;;;;;;;1.27;0.70;;;;;;;;;;4360591;32;20510;-84
2022/07/18 09:53:15;;;;;;;9.77;0.80;;;;;;;;;;4359660;32;20571;-80
2022/07/18 09:55:49;;;;;;;0.82;0.57;;;;;;;;;;4359747;32;20598;-81
2022/07/18 09:58:23;;;;;;;1.15;0.70;;;;;;;;;;4359942;32;20615;-83
2022/07/18 10:00:49;;;;;;;1.30;0.73;;;;;;;;;;4360139;32;20546;-80
2022/07/18 10:03:18;;;;;;;6.28;1.05;;;;;;;;;;4359777;32;20648;-81
2022/07/18 10:05:46;;;;;;;1.02;0.82;;;;;;;;;;4346690;32;20579;-80
2022/07/18 10:08:17;;;;;;;0.43;0.43;;;;;;;;;;4359489;32;20724;-80
2022/07/18 10:10:44;;;;;;;6.00;0.88;;;;;;;;;;4359645;32;20548;-81
2022/07/18 10:13:11;;;;;;;0.80;0.60;;;;;;;;;;4359834;32;20636;-83
2022/07/18 10:15:39;;;;;;;2.45;0.93;;;;;;;;;;4360082;32;20601;-81
2022/07/18 10:18:07;;;;;;;3.20;1.23;;;;;;;;;;4359698;32;20497;-83
2022/07/18 10:20:39;;;;;;;1.65;0.90;;;;;;;;;;4359788;32;20509;-83
2022/07/18 10:23:24;;;;;;;2.20;0.90;;;;;;;;;;4359216;32;20721;-84
2022/07/18 10:26:19;;;;;;;1.52;0.70;;;;;;;;;;4359923;32;20579;-83
2022/07/18 10:29:00;;;;;;;4.15;1.00;;;;;;;;;;4359278;32;20663;-82
2022/07/18 10:31:37;;;;;;;4.40;1.20;;;;;;;;;;4359625;32;20600;-84
2022/07/18 10:34:11;;;;;;;0.82;0.70;;;;;;;;;;4360501;32;20532;-85
2022/07/18 10:36:52;;;;;;;8.50;0.75;;;;;;;;;;4359566;32;20599;-82
2022/07/18 10:39:25;;;;;;;0.70;0.70;;;;;;;;;;4359710;32;20869;-84
2022/07/18 10:41:51;;;;;;;1.10;0.95;;;;;;;;;;4360450;32;20609;-84
2022/07/18 10:44:29;;;;;;;3.62;0.68;;;;;;;;;;4360031;32;20245;-83
2022/07/18 10:47:17;;;;;;;2.30;0.77;;;;;;;;;;4360181;32;20596;-84
2022/07/18 10:49:52;;;;;;;2.95;0.73;;;;;;;;;;4361093;32;20620;-81
2022/07/18 10:52:35;;;;;;;0.80;0.70;;;;;;;;;;4348182;32;20795;-80
2022/07/18 10:55:06;;;;;;;2.03;0.70;;;;;;;;;;4359393;32;20660;-80
2022/07/18 10:57:35;;;;;;;0.62;0.57;;;;;;;;;;4359691;32;20627;-81
2022/07/18 11:00:22;;;;;;;1.42;0.82;;;;;;;;;;4345745;32;20540;-81
2022/07/18 11:03:04;;;;;;;1.37;0.93;;;;;;;;;;4345977;32;20648;-79
2022/07/18 11:05:30;;;;;;;1.12;0.80;;;;;;;;;;4346363;32;20634;-80
2022/07/18 11:08:02;;;;;;;3.15;0.73;;;;;;;;;;4359582;32;20198;-81
2022/07/18 11:10:46;;;;;;;1.42;0.90;;;;;;;;;;4359608;32;20607;-83
2022/07/18 11:16:19;;;;;;;1.20;0.75;;;;;;;;;;4359206;32;20631;-83
2022/07/18 11:18:45;;;;;;;1.62;0.80;;;;;;;;;;4360045;33;20524;-83
2022/07/18 11:21:17;;;;;;;4.28;1.20;;;;;;;;;;4359402;33;20603;-86
2022/07/18 11:23:46;;;;;;;5.70;1.05;;;;;;;;;;4359405;33;20537;-83
2022/07/18 11:26:19;;;;;;;1.27;0.93;;;;;;;;;;4359417;33;20624;-82
2022/07/18 11:28:50;;;;;;;3.08;1.10;;;;;;;;;;4359450;33;20636;-81
2022/07/18 11:31:16;;;;;;;4.62;0.90;;;;;;;;;;4359245;33;20655;-81
2022/07/18 11:33:49;;;;;;;1.60;0.70;;;;;;;;;;4345828;33;20254;-81
2022/07/18 11:36:19;;;;;;;0.70;0.70;;;;;;;;;;4359434;33;20692;-82
2022/07/18 11:38:54;;;;;;;4.28;0.70;;;;;;;;;;4359530;33;20591;-81
2022/07/18 11:41:21;;;;;;;1.37;0.50;;;;;;;;;;4359189;33;20685;-81
2022/07/18 11:43:49;;;;;;;2.28;1.00;;;;;;;;;;4359369;33;20536;-80
2022/07/18 11:46:20;;;;;;;3.92;1.40;;;;;;;;;;4358940;33;20659;-80
2022/07/18 11:48:48;;;;;;;0.75;0.62;;;;;;;;;;4358927;33;20603;-81
2022/07/18 11:51:19;;;;;;;4.25;1.05;;;;;;;;;;4359026;33;20535;-80
2022/07/18 11:53:50;;;;;;;10.45;1.10;;;;;;;;;;4360130;32;20524;-80
2022/07/18 11:56:17;;;;;;;1.50;0.77;;;;;;;;;;4362146;32;20701;-80
2022/07/18 11:58:45;;;;;;;4.22;0.68;;;;;;;;;;4362157;32;20604;-80
2022/07/18 12:01:11;;;;;;;1.35;0.70;;;;;;;;;;4361995;32;21198;-81
2022/07/18 12:03:49;;;;;;;1.83;1.05;;;;;;;;;;4362232;32;20635;-81
2022/07/18 12:06:18;;;;;;;1.25;0.85;;;;;;;;;;4362564;32;20643;-81
2022/07/18 12:08:49;;;;;;;1.42;0.88;;;;;;;;;;4361181;32;20587;-80
2022/07/18 12:11:38;;;;;;;0.68;0.60;;;;;;;;;;4348572;32;20553;-81
2022/07/18 12:14:10;;;;;;;2.40;1.10;;;;;;;;;;4361913;32;20649;-79
2022/07/18 12:17:02;;;;;;;0.60;0.60;;;;;;;;;;4361544;32;20595;-80
2022/07/18 12:19:39;;;;;;;2.10;0.80;;;;;;;;;;4359899;32;20686;-83
2022/07/18 12:22:12;;;;;;;1.40;0.80;;;;;;;;;;4361097;32;20620;-81
2022/07/18 12:24:39;;;;;;;2.53;1.08;;;;;;;;;;4360679;32;20723;-82
2022/07/18 12:27:18;;;;;;;1.15;0.77;;;;;;;;;;4362360;32;20540;-82
2022/07/18 12:30:05;;;;;;;4.00;1.48;;;;;;;;;;4362314;32;20555;-80
2022/07/18 12:32:51;;;;;;;4.60;1.27;;;;;;;;;;4347953;32;20675;-80
2022/07/18 12:35:21;;;;;;;4.05;0.80;;;;;;;;;;4361685;32;20680;-82
2022/07/18 12:37:58;;;;;;;1.52;0.90;;;;;;;;;;4348351;32;20612;-80
2022/07/18 12:40:45;;;;;;;2.70;0.88;;;;;;;;;;4361404;32;20723;-80
2022/07/18 12:43:14;;;;;;;3.08;0.90;;;;;;;;;;4361704;32;20624;-79
2022/07/18 12:45:40;;;;;;;1.62;1.00;;;;;;;;;;4361205;32;20640;-80
2022/07/18 12:48:08;;;;;;;0.93;0.52;;;;;;;;;;4361382;32;20635;-80
2022/07/18 12:50:34;;;;;;;1.45;0.90;;;;;;;;;;4359855;32;20657;-79
2022/07/18 12:53:00;;;;;;;2.10;0.93;;;;;;;;;;4361223;32;20555;-79
2022/07/18 12:55:26;;;;;;;0.80;0.70;;;;;;;;;;4359660;32;20238;-80
2022/07/18 12:57:52;;;;;;;5.78;1.00;;;;;;;;;;4361487;32;20564;-79
2022/07/18 13:00:19;;;;;;;2.05;1.08;;;;;;;;;;4361417;32;20646;-79
2022/07/18 13:02:46;;;;;;;1.42;0.80;;;;;;;;;;4359708;32;20300;-80
2022/07/18 13:05:13;;;;;;;1.15;0.62;;;;;;;;;;4360802;32;20697;-79
2022/07/18 13:07:40;;;;;;;0.85;0.60;;;;;;;;;;4359679;32;20663;-79
2022/07/18 13:10:06;;;;;;;0.95;0.85;;;;;;;;;;4360706;32;20360;-78
2022/07/18 13:12:33;;;;;;;4.72;0.70;;;;;;;;;;4361361;32;20580;-79
2022/07/18 13:14:59;;;;;;;3.35;0.82;;;;;;;;;;4361132;32;20608;-80
2022/07/18 13:17:25;;;;;;;1.27;0.70;;;;;;;;;;4361039;32;20270;-78
2022/07/18 13:19:51;;;;;;;3.78;0.80;;;;;;;;;;4361059;32;20221;-80
2022/07/18 13:22:17;;;;;;;2.50;0.85;;;;;;;;;;4359588;32;20691;-80
2022/07/18 13:24:43;;;;;;;1.35;0.82;;;;;;;;;;4361018;32;20274;-79
2022/07/18 13:27:09;;;;;;;1.23;1.08;;;;;;;;;;4347405;32;20226;-79
2022/07/18 13:29:34;;;;;;;1.05;0.70;;;;;;;;;;4360552;32;20190;-79
2022/07/18 13:32:02;;;;;;;1.67;0.93;;;;;;;;;;4360503;32;20218;-79
2022/07/18 13:34:28;;;;;;;3.85;0.80;;;;;;;;;;4360859;32;20726;-78
2022/07/18 13:36:55;;;;;;;1.58;0.80;;;;;;;;;;4360920;32;20639;-78
2022/07/18 13:39:21;;;;;;;1.37;0.62;;;;;;;;;;4360986;32;20644;-79
2022/07/18 13:41:50;;;;;;;2.35;1.00;;;;;;;;;;4347134;32;20567;-79
2022/07/18 13:44:16;;;;;;;1.25;0.93;;;;;;;;;;4359632;32;20631;-78
2022/07/18 13:46:42;;;;;;;4.22;1.30;;;;;;;;;;4360607;32;20674;-78
2022/07/18 13:49:12;;;;;;;6.30;1.70;;;;;;;;;;4360617;32;20701;-78
2022/07/18 13:51:38;;;;;;;5.10;1.10;;;;;;;;;;4360726;32;20622;-79
2022/07/18 13:54:05;;;;;;;2.55;1.00;;;;;;;;;;4347224;32;20639;-79
2022/07/18 13:56:32;;;;;;;5.15;1.00;;;;;;;;;;4360336;32;20643;-79
2022/07/18 13:58:58;;;;;;;2.17;1.12;;;;;;;;;;4359421;32;20681;-79
2022/07/18 14:01:24;;;;;;;3.70;0.88;;;;;;;;;;4360740;32;20222;-79
2022/07/18 14:03:50;;;;;;;2.80;1.27;;;;;;;;;;4360604;32;20579;-79
2022/07/18 14:06:17;;;;;;;8.07;1.20;;;;;;;;;;4360541;32;20663;-79
2022/07/18 14:08:44;;;;;;;3.00;1.15;;;;;;;;;;4347073;32;20619;-79
2022/07/18 14:11:11;;;;;;;2.75;1.12;;;;;;;;;;4346936;32;20567;-78
2022/07/18 14:13:36;;;;;;;2.03;0.98;;;;;;;;;;4360610;32;20612;-79
2022/07/18 14:16:02;;;;;;;2.30;1.12;;;;;;;;;;4360061;32;20277;-79
2022/07/18 14:18:29;;;;;;;2.08;1.40;;;;;;;;;;4361023;32;20583;-79
2022/07/18 14:20:55;;;;;;;2.17;1.10;;;;;;;;;;4360307;32;20237;-79
2022/07/18 14:23:21;;;;;;;2.08;1.10;;;;;;;;;;4360368;32;20199;-79
2022/07/18 14:25:47;;;;;;;1.35;0.95;;;;;;;;;;4360354;32;20513;-81
2022/07/18 14:28:13;;;;;;;2.92;1.10;;;;;;;;;;4360029;32;20236;-81
2022/07/18 14:30:38;;;;;;;2.47;0.90;;;;;;;;;;4360345;32;20244;-82
2022/07/18 14:33:04;;;;;;;1.00;0.90;;;;;;;;;;4360129;32;20225;-81
2022/07/18 14:35:30;;;;;;;3.30;1.17;;;;;;;;;;4360336;32;20304;-80
2022/07/18 14:37:56;;;;;;;3.22;1.27;;;;;;;;;;4360372;32;20239;-82
2022/07/18 14:40:22;;;;;;;2.50;1.20;;;;;;;;;;4360349;32;20210;-79
2022/07/18 14:42:53;;;;;;;2.05;1.00;;;;;;;;;;4360383;32;20738;-78
2022/07/18 14:45:19;;;;;;;2.62;1.20;;;;;;;;;;4346630;32;20711;-78
2022/07/18 14:47:45;;;;;;;1.15;1.05;;;;;;;;;;4358960;32;20655;-79
2022/07/18 14:50:11;;;;;;;2.65;1.12;;;;;;;;;;4360505;32;20224;-79
2022/07/18 14:52:37;;;;;;;4.40;1.15;;;;;;;;;;4346643;32;20595;-78
2022/07/18 14:55:05;;;;;;;3.05;1.50;;;;;;;;;;4360321;32;20573;-80
2022/07/18 14:57:32;;;;;;;1.62;1.08;;;;;;;;;;4346469;32;20590;-82